Time;durP1;ratioP1;P1;durP2;ratioP2;P2;SDS_P1;SDS_P2;PMS_P1;PMS_P2;Temp;Humidity;BMP_temperature;BMP_pressure;BME280_temperature;BME280_humidity;BME280_pressure;Samples;Min_cycle;Max_cycle;Signal;HPM_P1;HPM_P2
2021/07/15 00:02:10;;;;;;;7.07;5.85;;;;;;;;;;5015998;28;20030;-89
2021/07/15 00:04:37;;;;;;;5.63;4.75;;;;;;;;;;5015647;28;20026;-88
2021/07/15 00:07:02;;;;;;;5.43;4.60;;;;;;;;;;4998920;28;20030;-86
2021/07/15 00:09:28;;;;;;;4.80;4.30;;;;;;;;;;5011577;28;20124;-88
2021/07/15 00:11:54;;;;;;;6.72;5.10;;;;;;;;;;5008706;28;20057;-87
2021/07/15 00:14:20;;;;;;;5.30;4.75;;;;;;;;;;4994649;28;20034;-86
2021/07/15 00:16:50;;;;;;;5.55;4.82;;;;;;;;;;5007128;28;20404;-87
2021/07/15 00:19:18;;;;;;;5.78;4.45;;;;;;;;;;5014356;28;20048;-85
2021/07/15 00:21:45;;;;;;;5.80;4.43;;;;;;;;;;5030801;28;20037;-86
2021/07/15 00:24:10;;;;;;;5.22;4.63;;;;;;;;;;5030618;28;20103;-86
2021/07/15 00:26:37;;;;;;;5.35;4.80;;;;;;;;;;5030678;28;20033;-86
2021/07/15 00:29:04;;;;;;;5.78;5.03;;;;;;;;;;5014681;28;20386;-86
2021/07/15 00:31:32;;;;;;;5.63;4.22;;;;;;;;;;5031660;28;20042;-88
2021/07/15 00:33:58;;;;;;;4.80;3.75;;;;;;;;;;5030561;28;20030;-86
2021/07/15 00:36:24;;;;;;;5.20;4.13;;;;;;;;;;5018190;28;20112;-87
2021/07/15 00:38:49;;;;;;;4.93;4.00;;;;;;;;;;4981247;28;20048;-86
2021/07/15 00:41:15;;;;;;;5.75;4.30;;;;;;;;;;4981073;28;20042;-86
2021/07/15 00:43:41;;;;;;;4.97;4.47;;;;;;;;;;4997624;28;20061;-86
2021/07/15 00:46:08;;;;;;;5.15;3.67;;;;;;;;;;4997566;28;20034;-85
2021/07/15 00:48:35;;;;;;;5.18;4.07;;;;;;;;;;4997338;28;20492;-86
2021/07/15 00:51:01;;;;;;;4.43;3.63;;;;;;;;;;4998123;28;20038;-86
2021/07/15 00:53:27;;;;;;;5.13;3.67;;;;;;;;;;4997537;28;20061;-85
2021/07/15 00:55:53;;;;;;;5.20;3.80;;;;;;;;;;4996678;28;20038;-85
2021/07/15 00:58:18;;;;;;;4.40;3.47;;;;;;;;;;4981065;28;20058;-84
2021/07/15 01:00:46;;;;;;;5.00;3.72;;;;;;;;;;4980969;28;20081;-84
2021/07/15 01:03:12;;;;;;;4.43;3.67;;;;;;;;;;4980801;28;20037;-84
2021/07/15 01:05:46;;;;;;;5.63;3.50;;;;;;;;;;4980423;28;20029;-84
2021/07/15 01:08:12;;;;;;;4.40;3.70;;;;;;;;;;4996811;28;20038;-84
2021/07/15 01:11:02;;;;;;;4.55;3.58;;;;;;;;;;4976562;28;20401;-85
2021/07/15 01:13:41;;;;;;;5.45;3.55;;;;;;;;;;5009203;28;20041;-84
2021/07/15 01:16:16;;;;;;;3.92;3.25;;;;;;;;;;4996526;28;20084;-84
2021/07/15 01:18:50;;;;;;;4.32;3.45;;;;;;;;;;4996535;28;20136;-84
2021/07/15 01:21:24;;;;;;;4.55;3.75;;;;;;;;;;4981511;28;20034;-85
2021/07/15 01:24:23;;;;;;;4.47;3.97;;;;;;;;;;4996865;28;20038;-85
2021/07/15 01:27:10;;;;;;;4.18;3.42;;;;;;;;;;5012604;28;20049;-85
2021/07/15 01:30:00;;;;;;;4.13;3.20;;;;;;;;;;5002029;28;20129;-84
2021/07/15 01:32:30;;;;;;;3.67;3.00;;;;;;;;;;5013091;28;20030;-87
2021/07/15 01:34:58;;;;;;;3.60;3.08;;;;;;;;;;5013753;28;20061;-89
2021/07/15 01:37:24;;;;;;;4.03;3.17;;;;;;;;;;4993418;28;20041;-87
2021/07/15 01:39:50;;;;;;;4.20;3.22;;;;;;;;;;5032977;28;20419;-86
2021/07/15 01:42:17;;;;;;;3.97;3.03;;;;;;;;;;5032789;28;20037;-87
2021/07/15 01:44:43;;;;;;;3.92;2.83;;;;;;;;;;5025935;28;20121;-89
2021/07/15 01:47:10;;;;;;;3.95;2.75;;;;;;;;;;4994088;28;20045;-91
2021/07/15 01:49:36;;;;;;;3.53;2.88;;;;;;;;;;4998419;28;20038;-88
2021/07/15 01:52:02;;;;;;;3.47;2.88;;;;;;;;;;4993842;28;20030;-89
2021/07/15 01:54:28;;;;;;;3.55;2.60;;;;;;;;;;5026866;28;20105;-88
2021/07/15 01:56:55;;;;;;;3.22;2.60;;;;;;;;;;4997356;28;20061;-90
2021/07/15 01:59:25;;;;;;;3.05;2.75;;;;;;;;;;5030248;28;20488;-90
2021/07/15 02:01:51;;;;;;;3.40;2.85;;;;;;;;;;5026591;28;20046;-88
2021/07/15 02:04:18;;;;;;;3.25;2.55;;;;;;;;;;4993098;28;20049;-86
2021/07/15 02:06:48;;;;;;;3.30;2.88;;;;;;;;;;4992755;28;20113;-86
2021/07/15 02:09:14;;;;;;;3.30;2.50;;;;;;;;;;5035084;28;20409;-85
2021/07/15 02:11:40;;;;;;;3.00;2.50;;;;;;;;;;4993552;28;20038;-86
2021/07/15 02:14:07;;;;;;;3.63;2.42;;;;;;;;;;5008999;28;20038;-86
2021/07/15 02:16:35;;;;;;;3.25;2.63;;;;;;;;;;5008553;28;20034;-85
2021/07/15 02:19:02;;;;;;;3.17;2.53;;;;;;;;;;4994838;28;20088;-85
2021/07/15 02:21:29;;;;;;;3.13;2.40;;;;;;;;;;4978474;28;20069;-86
2021/07/15 02:23:55;;;;;;;2.88;2.20;;;;;;;;;;5012138;28;20069;-85
2021/07/15 02:26:21;;;;;;;2.63;2.10;;;;;;;;;;5028410;28;20455;-85
2021/07/15 02:28:47;;;;;;;3.35;2.42;;;;;;;;;;5000984;28;20429;-85
2021/07/15 02:31:15;;;;;;;3.35;2.10;;;;;;;;;;4991861;28;20035;-85
2021/07/15 02:33:43;;;;;;;3.22;2.33;;;;;;;;;;5008155;28;20050;-84
2021/07/15 02:36:10;;;;;;;2.60;2.20;;;;;;;;;;5013054;28;20492;-86
2021/07/15 02:38:36;;;;;;;3.28;2.28;;;;;;;;;;4997937;28;20045;-86
2021/07/15 02:41:02;;;;;;;4.18;2.00;;;;;;;;;;5011475;28;20080;-87
2021/07/15 02:43:28;;;;;;;2.78;2.22;;;;;;;;;;5021562;28;20456;-86
2021/07/15 02:45:55;;;;;;;2.88;2.38;;;;;;;;;;5018103;28;20091;-85
2021/07/15 02:48:20;;;;;;;2.88;2.30;;;;;;;;;;5027845;28;20073;-86
2021/07/15 02:50:47;;;;;;;2.60;2.05;;;;;;;;;;5007896;28;20119;-86
2021/07/15 02:53:16;;;;;;;2.70;1.95;;;;;;;;;;5009949;28;20030;-85
2021/07/15 02:55:52;;;;;;;3.28;2.03;;;;;;;;;;5011123;28;20512;-84
2021/07/15 02:58:24;;;;;;;2.60;1.90;;;;;;;;;;5027722;28;20038;-85
2021/07/15 03:00:54;;;;;;;3.55;2.05;;;;;;;;;;5009890;28;20033;-84
2021/07/15 03:03:59;;;;;;;3.28;1.83;;;;;;;;;;4975986;28;20750;-86
2021/07/15 03:06:39;;;;;;;2.88;2.30;;;;;;;;;;4986137;28;20046;-88
2021/07/15 03:09:21;;;;;;;3.05;1.90;;;;;;;;;;5009239;28;20030;-87
2021/07/15 03:11:51;;;;;;;4.18;1.92;;;;;;;;;;4992715;28;20026;-86
2021/07/15 03:14:17;;;;;;;2.25;1.65;;;;;;;;;;4988279;28;20050;-86
2021/07/15 03:16:44;;;;;;;2.85;1.85;;;;;;;;;;4994591;28;20117;-85
2021/07/15 03:19:10;;;;;;;2.03;1.40;;;;;;;;;;4978231;28;20049;-85
2021/07/15 03:21:39;;;;;;;2.05;1.25;;;;;;;;;;4994887;28;20041;-84
2021/07/15 03:24:05;;;;;;;4.57;1.40;;;;;;;;;;4978593;28;20034;-85
2021/07/15 03:26:31;;;;;;;2.83;1.77;;;;;;;;;;4991047;28;20523;-84
2021/07/15 03:28:56;;;;;;;1.98;1.45;;;;;;;;;;5011401;28;20033;-84
2021/07/15 03:31:24;;;;;;;2.83;1.60;;;;;;;;;;4994477;28;20566;-84
2021/07/15 03:33:50;;;;;;;2.17;1.50;;;;;;;;;;4994262;28;20049;-83
2021/07/15 03:36:16;;;;;;;2.28;1.50;;;;;;;;;;5030371;28;20048;-84
2021/07/15 03:38:45;;;;;;;2.60;1.80;;;;;;;;;;5046045;28;20044;-87
2021/07/15 03:41:11;;;;;;;1.75;1.17;;;;;;;;;;4995432;28;20038;-89
2021/07/15 03:43:40;;;;;;;1.70;1.05;;;;;;;;;;4979252;28;20524;-88
2021/07/15 03:46:07;;;;;;;1.70;1.30;;;;;;;;;;5012078;28;20042;-88
2021/07/15 03:48:33;;;;;;;1.83;1.33;;;;;;;;;;4995192;28;20037;-87
2021/07/15 03:51:00;;;;;;;1.73;1.30;;;;;;;;;;5011615;28;20092;-88
2021/07/15 03:53:26;;;;;;;1.83;1.38;;;;;;;;;;5031421;28;20045;-86
2021/07/15 03:55:55;;;;;;;1.33;0.85;;;;;;;;;;4999707;28;20161;-87
2021/07/15 03:58:20;;;;;;;3.25;1.15;;;;;;;;;;4991992;28;20050;-86
2021/07/15 04:00:46;;;;;;;1.63;0.90;;;;;;;;;;5008586;28;20034;-86
2021/07/15 04:03:21;;;;;;;2.13;1.20;;;;;;;;;;5010138;28;20033;-86
2021/07/15 04:05:47;;;;;;;1.42;1.00;;;;;;;;;;5010023;28;20034;-85
2021/07/15 04:08:13;;;;;;;1.58;1.05;;;;;;;;;;5026983;28;20034;-85
2021/07/15 04:10:41;;;;;;;1.80;0.90;;;;;;;;;;5010706;28;20026;-85
2021/07/15 04:13:07;;;;;;;1.63;1.05;;;;;;;;;;5027919;28;20038;-89
2021/07/15 04:15:54;;;;;;;2.05;1.23;;;;;;;;;;5011700;28;20038;-90
2021/07/15 04:18:23;;;;;;;1.30;0.82;;;;;;;;;;5028333;28;20042;-88
2021/07/15 04:20:49;;;;;;;1.30;1.00;;;;;;;;;;5028444;28;20103;-88
2021/07/15 04:23:18;;;;;;;1.45;0.90;;;;;;;;;;5011362;28;20077;-88
2021/07/15 04:25:45;;;;;;;1.60;1.05;;;;;;;;;;4994890;28;20030;-86
2021/07/15 04:28:10;;;;;;;1.58;0.65;;;;;;;;;;4993913;28;20037;-85
2021/07/15 04:30:36;;;;;;;1.58;0.82;;;;;;;;;;5015693;28;20040;-85
2021/07/15 04:33:06;;;;;;;1.05;0.70;;;;;;;;;;4993020;28;20038;-84
2021/07/15 04:35:32;;;;;;;0.93;0.50;;;;;;;;;;4990627;28;20404;-85
2021/07/15 04:37:59;;;;;;;0.77;0.52;;;;;;;;;;5041788;28;20056;-84
2021/07/15 04:40:26;;;;;;;1.90;0.70;;;;;;;;;;4990554;28;20029;-85
2021/07/15 04:42:53;;;;;;;1.25;0.80;;;;;;;;;;4977816;28;20124;-89
2021/07/15 04:45:23;;;;;;;0.82;0.57;;;;;;;;;;5030026;28;20030;-91
2021/07/15 04:47:49;;;;;;;1.15;0.73;;;;;;;;;;5015392;28;20033;-91
2021/07/15 04:50:22;;;;;;;1.40;0.65;;;;;;;;;;5015195;28;20121;-90
2021/07/15 04:52:49;;;;;;;1.05;0.60;;;;;;;;;;4998513;28;20038;-91
2021/07/15 04:55:21;;;;;;;1.00;0.73;;;;;;;;;;5021267;28;20124;-91
2021/07/15 04:57:48;;;;;;;1.42;0.60;;;;;;;;;;5014868;28;20029;-92
2021/07/15 05:00:16;;;;;;;1.90;0.65;;;;;;;;;;5010902;28;20045;-91
2021/07/15 05:02:44;;;;;;;2.53;0.50;;;;;;;;;;5010523;28;20037;-89
2021/07/15 05:05:11;;;;;;;0.85;0.45;;;;;;;;;;5014477;28;20614;-89
2021/07/15 05:07:40;;;;;;;1.05;0.60;;;;;;;;;;5000562;28;20053;-89
2021/07/15 05:10:09;;;;;;;2.53;0.63;;;;;;;;;;4987050;28;20143;-90
2021/07/15 05:12:35;;;;;;;1.70;0.60;;;;;;;;;;4998237;28;20042;-87
2021/07/15 05:15:03;;;;;;;1.52;0.52;;;;;;;;;;4981428;28;20041;-91
2021/07/15 05:17:30;;;;;;;4.20;0.70;;;;;;;;;;5014721;28;20042;-88
2021/07/15 05:19:56;;;;;;;2.38;0.50;;;;;;;;;;5034539;28;20029;-87
2021/07/15 05:22:21;;;;;;;0.98;0.50;;;;;;;;;;4985293;28;20129;-87
2021/07/15 05:24:51;;;;;;;2.03;0.50;;;;;;;;;;4994289;28;20038;-88
2021/07/15 05:27:20;;;;;;;1.63;0.47;;;;;;;;;;4998051;28;20041;-87
2021/07/15 05:29:46;;;;;;;3.13;0.55;;;;;;;;;;5010521;28;20046;-85
2021/07/15 05:32:11;;;;;;;2.83;0.57;;;;;;;;;;4979642;28;20103;-86
2021/07/15 05:34:37;;;;;;;1.55;0.50;;;;;;;;;;4992901;28;20089;-88
2021/07/15 05:37:04;;;;;;;4.28;0.88;;;;;;;;;;5005918;28;20033;-87
2021/07/15 05:39:30;;;;;;;2.50;0.60;;;;;;;;;;4971852;28;20035;-88
2021/07/15 05:41:55;;;;;;;3.83;1.45;;;;;;;;;;5002676;28;20064;-87
2021/07/15 05:44:21;;;;;;;5.43;0.73;;;;;;;;;;4980126;28;20045;-88
2021/07/15 05:46:48;;;;;;;5.53;3.15;;;;;;;;;;5023348;28;20095;-88
2021/07/15 05:49:14;;;;;;;7.18;6.60;;;;;;;;;;5000119;28;20034;-87
2021/07/15 05:51:46;;;;;;;7.88;5.50;;;;;;;;;;5011309;28;20053;-88
2021/07/15 05:54:12;;;;;;;5.95;4.05;;;;;;;;;;5015064;28;20497;-87
2021/07/15 05:56:38;;;;;;;3.58;3.05;;;;;;;;;;5012695;28;20042;-88
2021/07/15 05:59:06;;;;;;;3.33;2.40;;;;;;;;;;5007827;28;20037;-88
2021/07/15 06:01:33;;;;;;;3.10;2.08;;;;;;;;;;5010021;28;20070;-88
2021/07/15 06:03:58;;;;;;;2.17;1.98;;;;;;;;;;4996304;28;20034;-88
2021/07/15 06:06:25;;;;;;;3.50;1.85;;;;;;;;;;5025889;28;20029;-88
2021/07/15 06:08:53;;;;;;;3.58;1.80;;;;;;;;;;5016159;28;20040;-87
2021/07/15 06:11:21;;;;;;;4.32;2.03;;;;;;;;;;5025424;28;20101;-90
2021/07/15 06:13:47;;;;;;;3.33;1.90;;;;;;;;;;5002535;28;20111;-89
2021/07/15 06:16:14;;;;;;;3.22;1.52;;;;;;;;;;5016216;28;20389;-89
2021/07/15 06:18:42;;;;;;;2.58;1.92;;;;;;;;;;5029347;28;20029;-89
2021/07/15 06:21:09;;;;;;;2.97;1.70;;;;;;;;;;5016263;28;20037;-89
2021/07/15 06:23:35;;;;;;;3.30;2.20;;;;;;;;;;5010794;28;20040;-89
2021/07/15 06:26:02;;;;;;;3.13;1.40;;;;;;;;;;5009912;28;20180;-89
2021/07/15 06:28:28;;;;;;;2.42;2.13;;;;;;;;;;4993555;28;20489;-89
2021/07/15 06:30:54;;;;;;;2.53;1.77;;;;;;;;;;4993191;28;20086;-89
2021/07/15 06:33:24;;;;;;;2.83;1.75;;;;;;;;;;4993348;28;20030;-88
2021/07/15 06:35:51;;;;;;;2.97;1.95;;;;;;;;;;4999101;28;20045;-89
2021/07/15 06:38:17;;;;;;;3.10;2.40;;;;;;;;;;4977016;28;20041;-88
2021/07/15 06:40:50;;;;;;;2.45;1.98;;;;;;;;;;5017788;28;20042;-89
2021/07/15 06:43:15;;;;;;;5.70;4.47;;;;;;;;;;4964599;28;20052;-89
2021/07/15 06:45:44;;;;;;;6.00;5.18;;;;;;;;;;5012788;28;20041;-90
2021/07/15 06:48:10;;;;;;;7.90;6.45;;;;;;;;;;5012264;28;20054;-91
2021/07/15 06:50:35;;;;;;;9.52;7.50;;;;;;;;;;5054721;28;20099;-91
2021/07/15 06:53:06;;;;;;;8.95;7.60;;;;;;;;;;5006141;28;20488;-92
2021/07/15 06:55:34;;;;;;;10.82;7.65;;;;;;;;;;4996874;28;20038;-92
2021/07/15 06:58:11;;;;;;;8.85;6.68;;;;;;;;;;5012810;28;20042;-92
2021/07/15 07:00:40;;;;;;;7.97;6.32;;;;;;;;;;5012713;28;20038;-92
2021/07/15 07:03:12;;;;;;;8.10;5.72;;;;;;;;;;5013049;28;20065;-91
2021/07/15 07:05:40;;;;;;;6.70;5.28;;;;;;;;;;5013074;28;20034;-93
2021/07/15 07:08:09;;;;;;;5.72;4.95;;;;;;;;;;4996268;28;20526;-90
2021/07/15 07:10:35;;;;;;;9.90;4.82;;;;;;;;;;5011819;28;20415;-89
2021/07/15 07:13:01;;;;;;;8.07;4.30;;;;;;;;;;5012198;28;20049;-90
2021/07/15 07:15:28;;;;;;;6.28;4.00;;;;;;;;;;4995802;28;20034;-90
2021/07/15 07:17:55;;;;;;;4.95;3.78;;;;;;;;;;5016800;28;20499;-90
2021/07/15 07:20:21;;;;;;;5.25;3.97;;;;;;;;;;4992249;28;20072;-89
2021/07/15 07:22:49;;;;;;;4.90;3.28;;;;;;;;;;4996246;28;20031;-90
2021/07/15 07:25:24;;;;;;;5.75;2.75;;;;;;;;;;5021524;28;20034;-93
2021/07/15 07:27:53;;;;;;;5.45;2.80;;;;;;;;;;5023941;28;20037;-90
2021/07/15 07:30:23;;;;;;;70.22;15.05;;;;;;;;;;4976266;28;20416;-92
2021/07/15 07:32:52;;;;;;;30.58;8.25;;;;;;;;;;5008261;28;20072;-93
2021/07/15 07:35:22;;;;;;;25.48;7.25;;;;;;;;;;4976448;28;20085;-90
2021/07/15 07:37:51;;;;;;;24.05;6.38;;;;;;;;;;5035743;28;20036;-92
2021/07/15 07:40:20;;;;;;;16.77;6.20;;;;;;;;;;5011817;28;20467;-94
2021/07/15 07:42:48;;;;;;;14.77;5.28;;;;;;;;;;5011846;28;20038;-94
2021/07/15 07:45:16;;;;;;;15.20;4.95;;;;;;;;;;5024337;28;20034;-93
2021/07/15 07:47:45;;;;;;;12.82;3.60;;;;;;;;;;4992639;28;20420;-94
2021/07/15 07:50:28;;;;;;;12.75;3.90;;;;;;;;;;5026833;28;20475;-94
2021/07/15 07:53:05;;;;;;;13.07;3.78;;;;;;;;;;4997524;28;20456;-96
2021/07/15 07:56:01;;;;;;;12.48;3.60;;;;;;;;;;4991881;28;20133;-96
2021/07/15 07:58:38;;;;;;;15.18;3.35;;;;;;;;;;4976774;28;20457;-95
2021/07/15 08:01:08;;;;;;;10.98;3.03;;;;;;;;;;4993584;28;20042;-92
2021/07/15 08:03:36;;;;;;;19.33;4.15;;;;;;;;;;4993008;28;20472;-90
2021/07/15 08:06:05;;;;;;;15.38;3.10;;;;;;;;;;4992713;28;20038;-92
2021/07/15 08:08:32;;;;;;;16.65;3.50;;;;;;;;;;4992178;28;20033;-92
2021/07/15 08:11:01;;;;;;;17.73;5.85;;;;;;;;;;4991964;28;20046;-94
2021/07/15 08:13:31;;;;;;;18.58;4.55;;;;;;;;;;4984628;28;20467;-95
2021/07/15 08:16:06;;;;;;;17.40;7.43;;;;;;;;;;4996125;28;20443;-95
2021/07/15 08:18:39;;;;;;;24.70;6.05;;;;;;;;;;5027101;28;20034;-94
2021/07/15 08:21:07;;;;;;;15.57;4.97;;;;;;;;;;4967037;28;20393;-92
2021/07/15 08:23:36;;;;;;;17.65;4.53;;;;;;;;;;4999702;28;20069;-93
2021/07/15 08:26:06;;;;;;;15.02;4.47;;;;;;;;;;4999608;28;20415;-92
2021/07/15 08:28:35;;;;;;;18.67;4.88;;;;;;;;;;4967075;28;20041;-92
2021/07/15 08:31:01;;;;;;;11.90;3.72;;;;;;;;;;4979587;28;20050;-92
2021/07/15 08:33:28;;;;;;;14.98;3.38;;;;;;;;;;4995611;28;20038;-93
2021/07/15 08:35:56;;;;;;;11.05;4.03;;;;;;;;;;4980378;28;20038;-93
2021/07/15 08:38:25;;;;;;;14.23;4.15;;;;;;;;;;5018715;28;20457;-92
2021/07/15 08:40:53;;;;;;;12.32;3.33;;;;;;;;;;5034900;28;20080;-92
2021/07/15 08:43:22;;;;;;;27.98;5.35;;;;;;;;;;5019195;28;20480;-93
2021/07/15 08:45:50;;;;;;;30.40;7.65;;;;;;;;;;4995733;28;20045;-93
2021/07/15 08:48:20;;;;;;;37.92;8.32;;;;;;;;;;5013107;28;20042;-92
2021/07/15 08:50:50;;;;;;;34.35;12.20;;;;;;;;;;4962932;28;20066;-94
2021/07/15 08:53:16;;;;;;;43.97;24.80;;;;;;;;;;4995152;28;20039;-93
2021/07/15 08:58:19;;;;;;;49.95;22.35;;;;;;;;;;5024529;28;20039;-90
2021/07/15 09:00:45;;;;;;;42.17;18.48;;;;;;;;;;4981726;28;20037;-90
2021/07/15 09:03:10;;;;;;;43.40;19.60;;;;;;;;;;4994927;28;20042;-84
2021/07/15 09:05:37;;;;;;;44.60;19.58;;;;;;;;;;4997624;28;20108;-88
2021/07/15 09:08:02;;;;;;;28.88;16.67;;;;;;;;;;4965917;28;20030;-89
2021/07/15 09:10:30;;;;;;;31.40;17.45;;;;;;;;;;4993966;28;20587;-88
2021/07/15 09:12:57;;;;;;;27.65;15.68;;;;;;;;;;4978465;28;20133;-86
2021/07/15 09:15:22;;;;;;;28.27;14.02;;;;;;;;;;4991934;28;20038;-86
2021/07/15 09:17:48;;;;;;;24.95;14.63;;;;;;;;;;4964712;28;20157;-90
2021/07/15 09:20:19;;;;;;;24.90;13.38;;;;;;;;;;4996922;28;20030;-86
2021/07/15 09:23:04;;;;;;;18.88;11.32;;;;;;;;;;4965053;28;20030;-87
2021/07/15 09:25:51;;;;;;;17.65;9.85;;;;;;;;;;4964731;28;20034;-88
2021/07/15 09:28:17;;;;;;;16.63;9.63;;;;;;;;;;5022556;28;20050;-87
2021/07/15 09:30:44;;;;;;;16.63;8.65;;;;;;;;;;5025319;28;20088;-85
2021/07/15 09:33:13;;;;;;;15.25;7.93;;;;;;;;;;4979821;28;20522;-85
2021/07/15 09:35:41;;;;;;;12.93;7.22;;;;;;;;;;5016752;28;20037;-87
2021/07/15 09:38:07;;;;;;;15.20;6.50;;;;;;;;;;5015039;28;20029;-90
2021/07/15 09:40:46;;;;;;;10.52;5.60;;;;;;;;;;5042372;28;20107;-88
2021/07/15 09:43:15;;;;;;;12.00;5.45;;;;;;;;;;5007965;28;20464;-88
2021/07/15 09:45:46;;;;;;;10.85;5.57;;;;;;;;;;5013003;28;20132;-86
2021/07/15 09:48:14;;;;;;;7.55;4.68;;;;;;;;;;5029594;28;20030;-86
2021/07/15 09:50:39;;;;;;;9.75;5.65;;;;;;;;;;4996595;28;20484;-85
2021/07/15 09:53:19;;;;;;;7.30;4.20;;;;;;;;;;5022380;28;20054;-89
2021/07/15 09:55:45;;;;;;;7.78;4.55;;;;;;;;;;5013599;28;20043;-86
2021/07/15 09:58:11;;;;;;;7.82;4.53;;;;;;;;;;5046849;28;20052;-86
2021/07/15 10:00:44;;;;;;;8.77;4.03;;;;;;;;;;5020657;28;20049;-85
2021/07/15 10:03:14;;;;;;;10.75;4.35;;;;;;;;;;4980298;28;20500;-85
2021/07/15 10:05:51;;;;;;;8.52;4.22;;;;;;;;;;4995404;28;20072;-84
2021/07/15 10:08:27;;;;;;;10.32;4.65;;;;;;;;;;5012280;28;20030;-84
2021/07/15 10:10:54;;;;;;;10.98;5.30;;;;;;;;;;5028055;28;20496;-84
2021/07/15 10:13:23;;;;;;;12.50;8.80;;;;;;;;;;4979514;28;20496;-85
2021/07/15 10:15:50;;;;;;;16.38;9.52;;;;;;;;;;4995771;28;20049;-83
2021/07/15 10:18:34;;;;;;;18.13;12.70;;;;;;;;;;4979358;28;20075;-84
2021/07/15 10:20:59;;;;;;;16.92;10.40;;;;;;;;;;5010269;28;20081;-83
2021/07/15 10:23:42;;;;;;;15.63;11.45;;;;;;;;;;4975662;28;20052;-83
2021/07/15 10:26:09;;;;;;;14.65;10.55;;;;;;;;;;4998520;28;20047;-83
2021/07/15 10:28:42;;;;;;;9.65;7.72;;;;;;;;;;4991451;28;20041;-85
2021/07/15 10:31:09;;;;;;;10.60;6.72;;;;;;;;;;5014058;28;20037;-83
2021/07/15 10:33:35;;;;;;;7.15;5.88;;;;;;;;;;5027300;28;20045;-83
2021/07/15 10:36:02;;;;;;;7.65;5.75;;;;;;;;;;5028935;28;20080;-82
2021/07/15 10:38:29;;;;;;;6.47;5.15;;;;;;;;;;5031429;28;20026;-84
2021/07/15 10:41:00;;;;;;;8.02;5.45;;;;;;;;;;4985711;28;20046;-83
2021/07/15 10:43:26;;;;;;;6.32;5.05;;;;;;;;;;4994581;28;20042;-82
2021/07/15 10:45:53;;;;;;;6.45;4.18;;;;;;;;;;5022604;28;20046;-83
2021/07/15 10:48:19;;;;;;;8.25;3.80;;;;;;;;;;5007800;28;20057;-82
2021/07/15 10:50:44;;;;;;;6.28;4.32;;;;;;;;;;5008084;28;20117;-81
2021/07/15 10:53:11;;;;;;;5.15;3.75;;;;;;;;;;5007873;28;20496;-82
2021/07/15 10:55:37;;;;;;;6.25;3.60;;;;;;;;;;5023984;28;20104;-81
2021/07/15 10:58:03;;;;;;;8.32;4.55;;;;;;;;;;4992350;28;20456;-83
2021/07/15 11:00:29;;;;;;;5.82;4.45;;;;;;;;;;5008162;28;20046;-83
2021/07/15 11:03:28;;;;;;;5.25;3.58;;;;;;;;;;4992051;28;20570;-84
2021/07/15 11:05:55;;;;;;;5.60;4.68;;;;;;;;;;4987853;28;20038;-84
2021/07/15 11:08:44;;;;;;;5.50;3.65;;;;;;;;;;4978302;28;20033;-84
2021/07/15 11:11:10;;;;;;;8.13;3.90;;;;;;;;;;5010041;28;20100;-84
2021/07/15 11:13:35;;;;;;;5.15;2.92;;;;;;;;;;4978497;28;20037;-83
2021/07/15 11:16:03;;;;;;;5.00;3.80;;;;;;;;;;4978121;28;20536;-83
2021/07/15 11:18:53;;;;;;;4.85;3.20;;;;;;;;;;4994589;28;20026;-84
2021/07/15 11:21:25;;;;;;;5.63;3.80;;;;;;;;;;5011181;28;20113;-83
2021/07/15 11:24:15;;;;;;;4.55;3.40;;;;;;;;;;5010755;28;20513;-82
2021/07/15 11:26:43;;;;;;;3.58;3.20;;;;;;;;;;5004016;28;20041;-82
2021/07/15 11:29:09;;;;;;;5.53;3.38;;;;;;;;;;5023589;28;20030;-83
2021/07/15 11:31:44;;;;;;;3.70;2.92;;;;;;;;;;4990947;28;20034;-84
2021/07/15 11:34:11;;;;;;;6.68;3.10;;;;;;;;;;4991359;28;20101;-85
2021/07/15 11:36:36;;;;;;;4.00;2.45;;;;;;;;;;5017223;28;20029;-85
2021/07/15 11:39:05;;;;;;;5.45;2.70;;;;;;;;;;5006078;28;20054;-86
2021/07/15 11:41:45;;;;;;;5.35;3.28;;;;;;;;;;4974871;28;20047;-85
2021/07/15 11:44:13;;;;;;;5.85;2.72;;;;;;;;;;5018324;28;20416;-86
2021/07/15 11:46:39;;;;;;;4.32;2.92;;;;;;;;;;5010567;28;20129;-86
2021/07/15 11:49:12;;;;;;;4.03;2.60;;;;;;;;;;5026915;28;20168;-86
2021/07/15 11:51:49;;;;;;;4.22;2.55;;;;;;;;;;5027312;28;20129;-85
2021/07/15 11:54:31;;;;;;;4.72;2.35;;;;;;;;;;5029473;28;20057;-86
2021/07/15 11:57:11;;;;;;;6.53;2.50;;;;;;;;;;5028738;28;20037;-85
2021/07/15 11:59:49;;;;;;;3.67;2.70;;;;;;;;;;5014008;28;20034;-85
2021/07/15 12:02:41;;;;;;;2.72;2.20;;;;;;;;;;5000765;28;20489;-83
2021/07/15 12:05:09;;;;;;;4.68;2.30;;;;;;;;;;5017254;28;20120;-85
2021/07/15 12:08:06;;;;;;;4.45;2.78;;;;;;;;;;4996989;28;20046;-84
2021/07/15 12:10:37;;;;;;;3.47;2.40;;;;;;;;;;5022901;28;20054;-84
2021/07/15 12:13:04;;;;;;;3.00;2.03;;;;;;;;;;5015363;28;20069;-83
2021/07/15 12:15:30;;;;;;;4.75;2.72;;;;;;;;;;5010911;28;20046;-83
2021/07/15 12:18:00;;;;;;;3.30;2.60;;;;;;;;;;4978316;28;20042;-83
2021/07/15 12:20:35;;;;;;;3.55;2.75;;;;;;;;;;4962449;28;20125;-82
2021/07/15 12:23:00;;;;;;;3.92;2.55;;;;;;;;;;5004575;28;20041;-82
2021/07/15 12:25:28;;;;;;;3.95;2.35;;;;;;;;;;5018931;28;20120;-82
2021/07/15 12:27:56;;;;;;;3.45;2.13;;;;;;;;;;5013667;28;20033;-82
2021/07/15 12:30:37;;;;;;;3.60;2.85;;;;;;;;;;5001098;28;20124;-83
2021/07/15 12:33:03;;;;;;;3.85;2.50;;;;;;;;;;4982525;28;20038;-81
2021/07/15 12:35:29;;;;;;;6.90;3.50;;;;;;;;;;4980434;28;20036;-82
2021/07/15 12:37:57;;;;;;;6.35;3.40;;;;;;;;;;4981571;28;20033;-81
2021/07/15 12:40:27;;;;;;;4.90;3.75;;;;;;;;;;5046717;28;20096;-82
2021/07/15 12:42:52;;;;;;;4.25;3.58;;;;;;;;;;5027255;28;20034;-83
2021/07/15 12:45:20;;;;;;;6.05;4.00;;;;;;;;;;5014954;28;20033;-83
2021/07/15 12:48:03;;;;;;;6.60;4.30;;;;;;;;;;4998745;28;20636;-83
2021/07/15 12:50:30;;;;;;;4.35;3.28;;;;;;;;;;4965320;28;20445;-85
2021/07/15 12:53:12;;;;;;;5.38;3.55;;;;;;;;;;4982131;28;20420;-85
2021/07/15 12:55:39;;;;;;;4.45;3.35;;;;;;;;;;4982609;28;20104;-85
2021/07/15 12:58:06;;;;;;;3.72;3.25;;;;;;;;;;5031072;28;20072;-86
2021/07/15 13:00:35;;;;;;;4.75;3.53;;;;;;;;;;5014704;28;20037;-88
2021/07/15 13:03:02;;;;;;;5.03;3.42;;;;;;;;;;5023185;28;20038;-87
2021/07/15 13:05:28;;;;;;;5.47;3.65;;;;;;;;;;5010736;28;20063;-86
2021/07/15 13:07:54;;;;;;;3.20;2.90;;;;;;;;;;5017587;28;20034;-86
2021/07/15 13:10:34;;;;;;;3.67;2.88;;;;;;;;;;5016998;28;20052;-84
2021/07/15 13:15:54;;;;;;;4.07;3.28;;;;;;;;;;5038709;28;20124;-86
2021/07/15 13:18:24;;;;;;;3.63;2.55;;;;;;;;;;5017247;28;20029;-86
2021/07/15 13:20:51;;;;;;;3.70;2.40;;;;;;;;;;5032699;28;20037;-86
2021/07/15 13:23:18;;;;;;;2.80;2.35;;;;;;;;;;5019480;28;20514;-86
2021/07/15 13:25:49;;;;;;;3.25;2.33;;;;;;;;;;4982990;28;20534;-86
2021/07/15 13:28:18;;;;;;;4.40;2.65;;;;;;;;;;5010270;28;20113;-86
2021/07/15 13:30:44;;;;;;;2.75;2.05;;;;;;;;;;5012161;28;20045;-86
2021/07/15 13:33:14;;;;;;;3.03;2.20;;;;;;;;;;5017355;28;20037;-86
2021/07/15 13:35:41;;;;;;;3.65;2.22;;;;;;;;;;4980117;28;20507;-85
2021/07/15 13:38:15;;;;;;;3.20;2.53;;;;;;;;;;4984520;28;20026;-86
2021/07/15 13:40:41;;;;;;;2.90;2.08;;;;;;;;;;5008726;28;20073;-85
2021/07/15 13:43:09;;;;;;;6.32;4.00;;;;;;;;;;5017716;28;20038;-86
2021/07/15 13:45:37;;;;;;;13.13;10.32;;;;;;;;;;5012302;28;20408;-85
2021/07/15 13:48:16;;;;;;;20.85;14.95;;;;;;;;;;5012593;28;20030;-83
2021/07/15 13:50:43;;;;;;;33.10;24.55;;;;;;;;;;4996594;28;20088;-84
2021/07/15 13:53:14;;;;;;;39.67;30.35;;;;;;;;;;5012889;28;20041;-85
2021/07/15 13:55:42;;;;;;;38.38;28.35;;;;;;;;;;5027094;28;20041;-84
2021/07/15 13:58:16;;;;;;;38.65;29.63;;;;;;;;;;4977747;28;20113;-85
2021/07/15 14:00:57;;;;;;;37.35;28.23;;;;;;;;;;5008437;28;20043;-84
2021/07/15 14:03:23;;;;;;;35.60;27.75;;;;;;;;;;5001627;28;20108;-86
2021/07/15 14:05:52;;;;;;;33.33;24.95;;;;;;;;;;5004479;28;20551;-86
2021/07/15 14:08:18;;;;;;;31.13;23.45;;;;;;;;;;5009162;28;20030;-84
2021/07/15 14:10:45;;;;;;;28.73;21.63;;;;;;;;;;5013378;28;20052;-86
2021/07/15 14:13:14;;;;;;;27.08;20.50;;;;;;;;;;5027956;28;20117;-87
2021/07/15 14:15:44;;;;;;;24.65;18.40;;;;;;;;;;5007406;28;20495;-87
2021/07/15 14:18:28;;;;;;;20.35;16.70;;;;;;;;;;4962905;28;20052;-86
2021/07/15 14:20:56;;;;;;;22.70;17.10;;;;;;;;;;5014320;28;20512;-87
2021/07/15 14:23:24;;;;;;;21.50;16.13;;;;;;;;;;5016133;28;20092;-88
2021/07/15 14:26:00;;;;;;;23.67;15.98;;;;;;;;;;4992767;28;20045;-89
2021/07/15 14:28:29;;;;;;;19.58;14.60;;;;;;;;;;4997400;28;20034;-88
2021/07/15 14:30:54;;;;;;;17.83;14.50;;;;;;;;;;5004557;28;20042;-89
2021/07/15 14:33:20;;;;;;;19.88;13.85;;;;;;;;;;4987516;28;20042;-90
2021/07/15 14:35:47;;;;;;;17.83;13.25;;;;;;;;;;4993202;28;20046;-90
2021/07/15 14:38:15;;;;;;;17.80;13.05;;;;;;;;;;5013339;28;20393;-88
2021/07/15 14:40:41;;;;;;;15.90;12.85;;;;;;;;;;4963077;28;20038;-86
2021/07/15 14:43:09;;;;;;;15.30;11.52;;;;;;;;;;4978857;28;20030;-88
2021/07/15 14:45:35;;;;;;;15.20;10.82;;;;;;;;;;4979695;28;20096;-87
2021/07/15 14:48:04;;;;;;;13.50;10.18;;;;;;;;;;4979776;28;20045;-92
2021/07/15 14:50:34;;;;;;;13.85;9.80;;;;;;;;;;4980386;28;20424;-93
2021/07/15 14:53:03;;;;;;;11.32;8.95;;;;;;;;;;4992711;28;20041;-92
2021/07/15 14:55:30;;;;;;;12.50;9.10;;;;;;;;;;4992680;28;20049;-91
2021/07/15 14:57:59;;;;;;;13.45;9.80;;;;;;;;;;5011901;28;20488;-91